Time;durP1;ratioP1;P1;durP2;ratioP2;P2;SDS_P1;SDS_P2;PMS_P1;PMS_P2;Temp;Humidity;BMP_temperature;BMP_pressure;BME280_temperature;BME280_humidity;BME280_pressure;Samples;Min_cycle;Max_cycle;Signal;HPM_P1;HPM_P2
2022/07/11 00:00:48;;;;;;;9.20;4.90;;;14.60;99.90;;;;;;5053628;28;20040;-22
2022/07/11 00:03:13;;;;;;;8.70;4.72;;;14.50;99.90;;;;;;5053674;28;20531;-22
2022/07/11 00:05:39;;;;;;;7.90;4.70;;;14.50;99.90;;;;;;5053622;28;20426;-23
2022/07/11 00:08:06;;;;;;;7.15;4.38;;;14.50;99.90;;;;;;5054157;28;20041;-22
2022/07/11 00:10:32;;;;;;;10.70;4.88;;;14.50;99.90;;;;;;5055031;28;20048;-22
2022/07/11 00:12:59;;;;;;;5.85;4.00;;;14.50;99.90;;;;;;5054117;28;20044;-23
2022/07/11 00:15:26;;;;;;;6.60;3.72;;;14.50;99.90;;;;;;5053239;28;20411;-23
2022/07/11 00:17:51;;;;;;;10.32;4.00;;;14.50;99.90;;;;;;5053191;28;20057;-22
2022/07/11 00:20:17;;;;;;;7.10;3.95;;;14.50;99.90;;;;;;5067446;28;20075;-23
2022/07/11 00:22:43;;;;;;;7.32;3.92;;;14.50;99.90;;;;;;5056674;28;20380;-23
2022/07/11 00:25:09;;;;;;;8.10;3.88;;;14.50;99.90;;;;;;5054067;28;20517;-23
2022/07/11 00:27:34;;;;;;;9.05;4.10;;;14.40;99.90;;;;;;5053126;28;20051;-22
2022/07/11 00:30:00;;;;;;;8.27;4.95;;;14.40;99.90;;;;;;5053432;28;20045;-22
2022/07/11 00:32:26;;;;;;;9.98;4.55;;;14.40;99.90;;;;;;5052337;28;20076;-22
2022/07/11 00:34:51;;;;;;;8.73;4.05;;;14.40;99.90;;;;;;5053394;28;20063;-23
2022/07/11 00:37:17;;;;;;;8.27;4.45;;;14.40;99.90;;;;;;5053042;28;20044;-22
2022/07/11 00:39:43;;;;;;;10.15;4.85;;;14.30;99.90;;;;;;5018780;28;20071;-22
2022/07/11 00:42:09;;;;;;;10.50;5.03;;;14.30;99.90;;;;;;5052510;28;20110;-22
2022/07/11 00:44:36;;;;;;;9.23;5.05;;;14.30;99.90;;;;;;5056878;28;20040;-23
2022/07/11 00:47:03;;;;;;;11.65;6.18;;;14.40;99.90;;;;;;5057647;28;20052;-22
2022/07/11 00:49:29;;;;;;;11.65;6.05;;;14.40;99.90;;;;;;5056934;28;20049;-23
2022/07/11 00:51:55;;;;;;;9.93;5.80;;;14.30;99.90;;;;;;5038646;28;20044;-23
2022/07/11 00:54:22;;;;;;;14.05;6.45;;;14.40;99.90;;;;;;5056916;28;20124;-23
2022/07/11 00:56:48;;;;;;;14.20;6.15;;;14.40;99.90;;;;;;5057476;28;20392;-23
2022/07/11 00:59:16;;;;;;;13.23;5.72;;;14.40;99.90;;;;;;5056840;28;20043;-23
2022/07/11 01:01:43;;;;;;;13.93;6.35;;;14.40;99.90;;;;;;5057452;28;20045;-22
2022/07/11 01:04:08;;;;;;;14.52;6.60;;;14.40;99.90;;;;;;5056097;28;20053;-22
2022/07/11 01:06:34;;;;;;;12.52;6.57;;;14.40;99.90;;;;;;5061532;28;20456;-23
2022/07/11 01:09:00;;;;;;;11.13;6.00;;;14.40;99.90;;;;;;5060270;28;20099;-23
2022/07/11 01:11:26;;;;;;;18.60;7.65;;;14.40;99.90;;;;;;5061276;28;20482;-23
2022/07/11 01:13:52;;;;;;;14.73;6.20;;;14.40;99.90;;;;;;5050459;28;20037;-23
2022/07/11 01:16:22;;;;;;;14.80;8.15;;;14.40;99.90;;;;;;5059402;28;20115;-23
2022/07/11 01:18:50;;;;;;;19.05;8.18;;;14.50;99.90;;;;;;5055911;28;20115;-23
2022/07/11 01:21:29;;;;;;;20.08;8.45;;;14.40;99.90;;;;;;5067259;28;20398;-22
2022/07/11 01:23:58;;;;;;;22.08;8.68;;;14.40;99.90;;;;;;5058221;28;20064;-22
2022/07/11 01:26:24;;;;;;;17.30;7.68;;;14.40;99.90;;;;;;5056235;28;20084;-22
2022/07/11 01:28:50;;;;;;;19.20;9.25;;;14.50;99.90;;;;;;5057122;28;20056;-23
2022/07/11 01:31:16;;;;;;;15.68;7.78;;;14.40;99.90;;;;;;5056678;28;20037;-23
2022/07/11 01:33:42;;;;;;;17.15;7.63;;;14.40;99.90;;;;;;5056254;28;20041;-23
2022/07/11 01:36:09;;;;;;;12.55;6.60;;;14.40;99.90;;;;;;5056139;28;20449;-22
2022/07/11 01:38:35;;;;;;;17.45;8.30;;;14.40;99.90;;;;;;5055916;28;20044;-22
2022/07/11 01:41:01;;;;;;;17.92;7.68;;;14.40;99.90;;;;;;5056850;28;20381;-22
2022/07/11 01:43:27;;;;;;;15.63;8.32;;;14.40;99.90;;;;;;5057282;28;20041;-25
2022/07/11 01:45:53;;;;;;;22.58;8.18;;;14.40;99.90;;;;;;5056698;28;20045;-23
2022/07/11 01:48:19;;;;;;;16.38;7.55;;;14.40;99.90;;;;;;5057080;28;20044;-23
2022/07/11 01:50:48;;;;;;;15.23;7.55;;;14.40;99.90;;;;;;5056310;28;20041;-22
2022/07/11 01:53:15;;;;;;;12.07;6.80;;;14.40;99.90;;;;;;5054698;28;20490;-23
2022/07/11 01:55:41;;;;;;;22.65;8.93;;;14.40;99.90;;;;;;5053838;28;20139;-23
2022/07/11 01:58:07;;;;;;;14.65;8.27;;;14.40;99.90;;;;;;5055676;28;20045;-23
2022/07/11 02:00:32;;;;;;;17.33;8.77;;;14.40;99.90;;;;;;5055633;28;20056;-23
2022/07/11 02:02:58;;;;;;;17.13;8.68;;;14.40;99.90;;;;;;5056158;28;20106;-23
2022/07/11 02:05:24;;;;;;;23.40;9.80;;;14.40;99.90;;;;;;5055172;28;20045;-23
2022/07/11 02:10:34;;;;;;;18.77;8.10;;;14.40;99.90;;;;;;5058556;28;20049;-23
2022/07/11 02:13:00;;;;;;;21.73;9.13;;;14.40;99.90;;;;;;5055232;28;20487;-24
2022/07/11 02:15:27;;;;;;;18.10;9.52;;;14.50;99.90;;;;;;5055274;28;20091;-23
2022/07/11 02:17:53;;;;;;;17.50;9.75;;;14.50;99.90;;;;;;5054515;28;20469;-23
2022/07/11 02:24:00;;;;;;;17.98;7.65;;;14.50;99.90;;;;;;5068358;28;20147;-24
2022/07/11 02:26:25;;;;;;;12.00;5.75;;;14.50;99.90;;;;;;5054746;28;20543;-23
2022/07/11 02:28:51;;;;;;;12.88;5.72;;;14.50;99.90;;;;;;5054677;28;20183;-23
2022/07/11 02:31:17;;;;;;;13.30;4.90;;;14.60;99.90;;;;;;5060264;28;20119;-23
2022/07/11 02:33:43;;;;;;;19.10;5.13;;;14.60;99.90;;;;;;5058344;28;20045;-23
2022/07/11 02:36:10;;;;;;;10.88;4.45;;;14.60;99.90;;;;;;5053277;28;20510;-23
2022/07/11 02:38:36;;;;;;;10.98;5.18;;;14.60;99.90;;;;;;5055045;28;20049;-23
2022/07/11 02:41:02;;;;;;;16.52;6.68;;;14.60;99.90;;;;;;5055686;28;20135;-24
2022/07/11 02:43:28;;;;;;;10.25;5.47;;;14.60;99.90;;;;;;5055422;28;20049;-23
2022/07/11 02:45:55;;;;;;;13.63;5.65;;;14.60;99.90;;;;;;5055709;28;20047;-23
2022/07/11 02:48:20;;;;;;;17.00;6.53;;;14.60;99.90;;;;;;5057363;28;20123;-24
2022/07/11 02:50:47;;;;;;;15.57;5.70;;;14.60;99.90;;;;;;5055984;28;20128;-24
2022/07/11 02:53:12;;;;;;;13.40;6.07;;;14.60;99.90;;;;;;5069734;28;20487;-24
2022/07/11 02:55:39;;;;;;;11.18;4.40;;;14.60;99.90;;;;;;5053278;28;20044;-24
2022/07/11 02:58:04;;;;;;;11.88;5.38;;;14.70;99.90;;;;;;5054886;28;20045;-24
2022/07/11 03:00:31;;;;;;;14.05;6.30;;;14.70;99.90;;;;;;5054737;28;20509;-24
2022/07/11 03:02:57;;;;;;;14.90;6.50;;;14.70;99.90;;;;;;5057792;28;20574;-23
2022/07/11 03:05:23;;;;;;;13.77;5.45;;;14.70;99.90;;;;;;5053914;28;20091;-23
2022/07/11 03:07:49;;;;;;;11.68;5.15;;;14.70;99.90;;;;;;5055064;28;20049;-23
2022/07/11 03:10:14;;;;;;;16.25;6.15;;;14.70;99.90;;;;;;5059495;28;20141;-24
2022/07/11 03:12:41;;;;;;;12.32;4.70;;;14.70;99.90;;;;;;5069710;28;20048;-23
2022/07/11 03:15:08;;;;;;;9.10;4.60;;;14.70;99.90;;;;;;5060381;28;20491;-24
2022/07/11 03:17:36;;;;;;;9.13;3.92;;;14.70;99.90;;;;;;5053487;28;20053;-24
2022/07/11 03:20:03;;;;;;;10.23;3.30;;;14.70;99.90;;;;;;5053416;28;20053;-24
2022/07/11 03:22:29;;;;;;;6.18;2.63;;;14.70;99.90;;;;;;5051459;28;20088;-24
2022/07/11 03:24:55;;;;;;;5.47;2.00;;;14.60;99.90;;;;;;5031229;28;20072;-24
2022/07/11 03:27:21;;;;;;;7.45;2.40;;;14.60;99.90;;;;;;5064558;28;20115;-24
2022/07/11 03:29:47;;;;;;;5.65;2.00;;;14.50;99.90;;;;;;5054492;28;20438;-24
2022/07/11 03:32:13;;;;;;;9.02;2.67;;;14.60;99.90;;;;;;5053238;28;20533;-24
2022/07/11 03:34:39;;;;;;;3.90;2.05;;;14.60;99.90;;;;;;5047675;28;20076;-23
2022/07/11 03:37:05;;;;;;;6.75;2.67;;;14.60;99.90;;;;;;5054938;28;20132;-23
2022/07/11 03:39:31;;;;;;;7.43;2.38;;;14.60;99.90;;;;;;5054919;28;20143;-23
2022/07/11 03:41:57;;;;;;;6.90;2.40;;;14.60;99.90;;;;;;5053113;28;20103;-23
2022/07/11 03:44:23;;;;;;;8.00;2.70;;;14.50;99.90;;;;;;5066643;28;20040;-23
2022/07/11 03:46:49;;;;;;;5.95;1.95;;;14.60;99.90;;;;;;5071250;28;20127;-24
2022/07/11 03:49:15;;;;;;;5.97;2.35;;;14.50;99.90;;;;;;5065350;28;20166;-24
2022/07/11 03:51:41;;;;;;;9.07;2.97;;;14.60;99.90;;;;;;5053754;28;20057;-23
2022/07/11 03:54:07;;;;;;;6.03;2.90;;;14.60;99.90;;;;;;5061219;28;20414;-24
2022/07/11 03:56:33;;;;;;;6.80;2.33;;;14.50;99.90;;;;;;5074033;28;20123;-23
2022/07/11 03:58:59;;;;;;;14.02;2.85;;;14.60;99.90;;;;;;5063215;28;20044;-24
2022/07/11 04:01:25;;;;;;;4.60;2.42;;;14.50;99.90;;;;;;5065274;28;20038;-23
2022/07/11 04:03:51;;;;;;;6.53;2.85;;;14.60;99.90;;;;;;5059324;28;20162;-24
2022/07/11 04:06:16;;;;;;;7.72;3.10;;;14.60;99.90;;;;;;5063999;28;20041;-24
2022/07/11 04:08:42;;;;;;;10.00;3.10;;;14.70;99.90;;;;;;5053817;28;20044;-23
2022/07/11 04:11:08;;;;;;;11.80;4.18;;;14.60;99.90;;;;;;5054331;28;20048;-24
2022/07/11 04:13:34;;;;;;;6.82;3.42;;;14.60;99.90;;;;;;5061465;28;20045;-24
2022/07/11 04:16:00;;;;;;;8.77;4.07;;;14.70;99.90;;;;;;5052518;28;20053;-23
2022/07/11 04:18:25;;;;;;;8.60;2.95;;;14.70;99.90;;;;;;5052684;28;20049;-24
2022/07/11 04:20:52;;;;;;;9.45;2.78;;;14.80;99.90;;;;;;5038732;28;20411;-24
2022/07/11 04:23:18;;;;;;;10.77;4.10;;;14.80;99.90;;;;;;5071693;28;20106;-24
2022/07/11 04:25:43;;;;;;;9.43;4.53;;;14.80;99.90;;;;;;5073930;28;20044;-23
2022/07/11 04:28:09;;;;;;;13.50;4.13;;;14.80;99.90;;;;;;5070148;28;20055;-24
2022/07/11 04:30:35;;;;;;;9.60;4.50;;;14.80;99.90;;;;;;5051728;28;20037;-24
2022/07/11 04:33:01;;;;;;;9.00;3.72;;;14.90;99.90;;;;;;5054500;28;20044;-24
2022/07/11 04:35:27;;;;;;;10.13;3.13;;;14.90;99.90;;;;;;5063075;28;20048;-24
2022/07/11 04:37:53;;;;;;;10.70;4.20;;;14.90;99.90;;;;;;5062939;28;20111;-24
2022/07/11 04:40:23;;;;;;;13.65;4.60;;;14.80;99.90;;;;;;5068129;28;20080;-24
2022/07/11 04:42:50;;;;;;;11.18;3.88;;;14.80;99.90;;;;;;5053266;28;20049;-24
2022/07/11 04:45:15;;;;;;;8.38;2.60;;;14.80;99.90;;;;;;5059238;28;20076;-23
2022/07/11 04:47:41;;;;;;;8.38;2.33;;;14.90;99.90;;;;;;5072255;28;20095;-23
2022/07/11 04:50:08;;;;;;;7.38;2.92;;;14.90;99.90;;;;;;5045300;28;20056;-23
2022/07/11 04:52:34;;;;;;;8.10;2.22;;;15.00;99.90;;;;;;5053326;28;20561;-23
2022/07/11 04:55:00;;;;;;;7.68;2.40;;;14.90;99.90;;;;;;5054606;28;20052;-23
2022/07/11 04:57:26;;;;;;;5.93;2.55;;;14.90;99.90;;;;;;5072674;28;20486;-23
2022/07/11 04:59:52;;;;;;;5.18;1.98;;;15.00;99.90;;;;;;5073621;28;20049;-23
2022/07/11 05:02:18;;;;;;;6.10;2.28;;;15.00;99.90;;;;;;5055864;28;20060;-24
2022/07/11 05:04:45;;;;;;;4.55;1.75;;;15.00;99.90;;;;;;5051921;28;20079;-24
2022/07/11 05:07:13;;;;;;;9.70;1.80;;;15.00;99.90;;;;;;5050468;28;20060;-24
2022/07/11 05:09:39;;;;;;;5.35;1.60;;;15.00;99.90;;;;;;5070854;28;20067;-24
2022/07/11 05:12:06;;;;;;;5.40;1.83;;;15.10;99.90;;;;;;5051604;28;20045;-24
2022/07/11 05:14:32;;;;;;;6.80;1.80;;;15.10;99.90;;;;;;5039742;28;20442;-24
2022/07/11 05:16:57;;;;;;;7.00;2.08;;;15.20;99.90;;;;;;5051098;28;20112;-24
2022/07/11 05:19:23;;;;;;;4.30;1.58;;;15.20;99.90;;;;;;5050852;28;20127;-24
2022/07/11 05:21:50;;;;;;;5.82;1.35;;;15.20;99.90;;;;;;5052102;28;20103;-24
2022/07/11 05:24:18;;;;;;;5.40;1.38;;;15.30;99.90;;;;;;5052029;28;20048;-24
2022/07/11 05:26:44;;;;;;;4.35;1.02;;;15.30;99.90;;;;;;5052567;28;20045;-24
2022/07/11 05:29:10;;;;;;;2.58;1.02;;;15.30;99.90;;;;;;5036370;28;20059;-24
2022/07/11 05:31:36;;;;;;;3.67;1.10;;;15.40;99.90;;;;;;5056712;28;20045;-23
2022/07/11 05:34:02;;;;;;;2.55;0.80;;;15.40;99.90;;;;;;5058266;28;20487;-24
2022/07/11 05:36:28;;;;;;;4.20;1.00;;;15.40;99.90;;;;;;5058314;28;20045;-24
2022/07/11 05:38:53;;;;;;;8.00;1.40;;;15.50;99.90;;;;;;5060329;28;20061;-24
2022/07/11 05:41:19;;;;;;;5.78;1.20;;;15.50;99.90;;;;;;5056012;28;20073;-24
2022/07/11 05:43:45;;;;;;;6.85;1.33;;;15.50;99.90;;;;;;5055553;28;20128;-23
2022/07/11 05:46:10;;;;;;;5.38;1.00;;;15.60;99.90;;;;;;5063285;28;20055;-24
2022/07/11 05:48:36;;;;;;;2.97;1.27;;;15.60;99.90;;;;;;5068499;28;20490;-24
2022/07/11 05:51:02;;;;;;;2.92;1.10;;;15.70;99.90;;;;;;5056799;28;20044;-24
2022/07/11 05:53:27;;;;;;;2.92;0.93;;;15.70;99.90;;;;;;5054879;28;20173;-24
2022/07/11 05:55:53;;;;;;;5.55;1.20;;;15.80;99.90;;;;;;5058305;28;20403;-24
2022/07/11 05:58:19;;;;;;;3.80;0.90;;;15.90;99.90;;;;;;5055014;28;20045;-24
2022/07/11 06:00:44;;;;;;;3.20;1.00;;;15.80;99.90;;;;;;5065457;28;20044;-24
2022/07/11 06:03:10;;;;;;;2.38;0.52;;;15.80;99.90;;;;;;5060383;28;20056;-24
2022/07/11 06:05:36;;;;;;;1.88;0.90;;;15.70;99.90;;;;;;5059496;28;20068;-24
2022/07/11 06:10:46;;;;;;;4.57;0.70;;;15.70;99.90;;;;;;5063770;28;20052;-24
2022/07/11 06:13:12;;;;;;;4.35;0.88;;;15.60;99.90;;;;;;5054308;28;20045;-24
2022/07/11 06:15:37;;;;;;;3.60;0.82;;;15.70;99.90;;;;;;5055726;28;20048;-24
2022/07/11 06:18:03;;;;;;;1.25;0.65;;;15.60;99.90;;;;;;5063066;28;20057;-23
2022/07/11 06:20:29;;;;;;;3.05;0.55;;;15.60;99.90;;;;;;5055783;28;20044;-23
2022/07/11 06:22:55;;;;;;;1.02;0.40;;;15.70;99.90;;;;;;5055404;28;20041;-24
2022/07/11 06:25:20;;;;;;;2.92;0.40;;;15.70;99.90;;;;;;5054765;28;20041;-23
2022/07/11 06:27:46;;;;;;;3.22;0.60;;;15.60;99.90;;;;;;5057923;28;20037;-24
2022/07/11 06:30:12;;;;;;;2.45;0.57;;;15.50;99.90;;;;;;5038187;28;20072;-23
2022/07/11 06:32:39;;;;;;;2.50;0.60;;;15.50;99.90;;;;;;5070071;28;20048;-23
2022/07/11 06:35:07;;;;;;;4.15;0.90;;;15.60;99.90;;;;;;5054878;28;20052;-24
2022/07/11 06:37:33;;;;;;;4.30;0.90;;;15.50;99.90;;;;;;5054285;28;20513;-23
2022/07/11 06:39:59;;;;;;;2.03;0.90;;;15.60;99.90;;;;;;5054046;28;20394;-24
2022/07/11 06:42:25;;;;;;;5.13;0.80;;;15.60;99.90;;;;;;5055086;28;20046;-24
2022/07/11 06:44:51;;;;;;;5.47;1.17;;;15.60;99.90;;;;;;5073795;28;20426;-24
2022/07/11 06:47:17;;;;;;;4.25;1.20;;;15.70;99.90;;;;;;5075392;28;20584;-23
2022/07/11 06:49:43;;;;;;;2.60;1.13;;;15.60;99.90;;;;;;5058044;28;20194;-23
2022/07/11 06:52:09;;;;;;;3.42;1.08;;;15.80;99.90;;;;;;5055473;28;20045;-24
2022/07/11 06:54:36;;;;;;;4.57;1.40;;;15.80;99.90;;;;;;5050750;28;20547;-24
2022/07/11 06:57:01;;;;;;;4.63;1.63;;;15.90;99.90;;;;;;5073680;28;20055;-25
2022/07/11 06:59:27;;;;;;;5.10;1.88;;;15.90;99.90;;;;;;5067107;28;20040;-24
2022/07/11 07:01:53;;;;;;;3.53;0.90;;;16.00;99.90;;;;;;5054520;28;20044;-24
2022/07/11 07:04:18;;;;;;;3.42;0.90;;;16.20;99.90;;;;;;5055867;28;20167;-24
2022/07/11 07:06:44;;;;;;;3.00;1.35;;;16.30;99.90;;;;;;5036998;28;20072;-24
2022/07/11 07:09:10;;;;;;;2.30;1.02;;;16.30;99.90;;;;;;5057658;28;20052;-25
2022/07/11 07:11:38;;;;;;;7.88;1.67;;;16.40;99.90;;;;;;5074196;28;20135;-24
2022/07/11 07:14:04;;;;;;;1.63;0.65;;;16.40;99.90;;;;;;5055830;28;20064;-25
2022/07/11 07:16:32;;;;;;;2.13;0.75;;;16.50;99.90;;;;;;5056824;28;20040;-25
2022/07/11 07:18:58;;;;;;;4.88;1.10;;;16.80;99.90;;;;;;5052920;28;20061;-24
2022/07/11 07:21:23;;;;;;;2.72;0.80;;;16.90;99.90;;;;;;5059581;28;20109;-25
2022/07/11 07:23:52;;;;;;;1.25;0.90;;;16.90;99.90;;;;;;5060471;28;20053;-25
2022/07/11 07:26:17;;;;;;;2.22;0.95;;;17.20;99.90;;;;;;5053408;28;20041;-24
2022/07/11 07:28:43;;;;;;;4.75;1.02;;;17.50;99.90;;;;;;5054090;28;20048;-25
2022/07/11 07:31:11;;;;;;;3.95;1.02;;;17.80;1.00;;;;;;5054275;28;20044;-26
2022/07/11 07:33:37;;;;;;;0.30;0.20;;;17.70;1.00;;;;;;5055306;28;20055;-25
2022/07/11 07:36:05;;;;;;;0.65;0.13;;;17.50;99.90;;;;;;5052769;28;20161;-25
2022/07/11 07:38:31;;;;;;;0.63;0.10;;;17.40;99.90;;;;;;5052286;28;20040;-25
2022/07/11 07:40:57;;;;;;;0.73;0.17;;;17.20;99.90;;;;;;5054356;28;20048;-24
2022/07/11 07:43:25;;;;;;;0.73;0.10;;;17.20;99.90;;;;;;5053833;28;20037;-25
2022/07/11 07:45:51;;;;;;;1.05;0.25;;;17.40;1.00;;;;;;5053692;28;20406;-25
2022/07/11 07:48:17;;;;;;;0.85;0.17;;;17.60;99.90;;;;;;5054102;28;20045;-25
2022/07/11 07:50:43;;;;;;;0.63;0.10;;;17.50;99.90;;;;;;5054084;28;20052;-24
2022/07/11 07:53:09;;;;;;;0.60;0.10;;;17.30;99.90;;;;;;5054379;28;20048;-25
2022/07/11 07:55:35;;;;;;;0.20;0.10;;;17.20;99.90;;;;;;5052543;28;20040;-24
2022/07/11 07:58:01;;;;;;;2.67;0.17;;;17.20;1.00;;;;;;5052321;28;20056;-25
2022/07/11 08:03:11;;;;;;;0.75;0.20;;;17.50;1.00;;;;;;5069801;28;20101;-25
2022/07/11 08:05:37;;;;;;;1.30;0.38;;;17.80;1.00;;;;;;5053919;28;20045;-25
2022/07/11 08:08:03;;;;;;;0.50;0.10;;;18.20;99.90;;;;;;5056258;28;20037;-25
2022/07/11 08:10:29;;;;;;;0.88;0.10;;;18.60;99.90;;;;;;5053543;28;20053;-25
2022/07/11 08:12:55;;;;;;;1.55;0.10;;;18.70;2.30;;;;;;5053469;28;20094;-25
2022/07/11 08:15:21;;;;;;;1.45;0.10;;;18.70;99.90;;;;;;5069658;28;20051;-25
2022/07/11 08:17:49;;;;;;;0.85;0.17;;;18.80;1.00;;;;;;5055541;28;20062;-25
2022/07/11 08:20:15;;;;;;;1.33;0.20;;;18.50;1.00;;;;;;5060581;28;20382;-25
2022/07/11 08:22:40;;;;;;;1.95;0.20;;;18.30;99.90;;;;;;5066517;28;20040;-25
2022/07/11 08:25:06;;;;;;;1.02;0.10;;;18.00;10.20;;;;;;5061945;28;20063;-25
2022/07/11 08:27:33;;;;;;;2.28;0.03;;;17.70;99.90;;;;;;5063611;28;20045;-25
2022/07/11 08:29:59;;;;;;;0.77;0.10;;;17.70;99.90;;;;;;5053888;28;20056;-25
2022/07/11 08:32:25;;;;;;;0.30;0.20;;;17.40;1.00;;;;;;5070965;28;20048;-24
2022/07/11 08:34:50;;;;;;;1.75;0.10;;;17.20;99.90;;;;;;5073517;28;20048;-24
2022/07/11 08:37:16;;;;;;;0.68;0.10;;;17.30;1.00;;;;;;5073967;28;20053;-24
2022/07/11 08:39:45;;;;;;;0.63;0.00;;;17.30;99.90;;;;;;5073591;28;20036;-24
2022/07/11 08:42:13;;;;;;;0.00;0.00;;;17.50;1.00;;;;;;5073129;28;20049;-24
2022/07/11 08:44:39;;;;;;;0.08;0.00;;;17.60;1.00;;;;;;5061031;28;20052;-25
2022/07/11 08:47:05;;;;;;;2.90;0.20;;;17.90;99.90;;;;;;5073475;28;20486;-25
2022/07/11 08:49:31;;;;;;;0.22;0.10;;;18.20;99.90;;;;;;5055846;28;20091;-24
2022/07/11 08:52:04;;;;;;;2.00;0.20;;;18.30;99.90;;;;;;5055534;28;20095;-25
2022/07/11 08:54:30;;;;;;;;;;;18.30;99.90;;;;;;5073938;28;20056;-24
2022/07/11 08:56:56;;;;;;;2.20;0.10;;;18.00;8.80;;;;;;5073391;28;19977;-24
2022/07/11 08:59:25;;;;;;;1.52;0.10;;;17.90;99.90;;;;;;5073224;28;20394;-25
2022/07/11 09:01:53;;;;;;;2.63;0.30;;;17.90;99.90;;;;;;5072287;28;20049;-25
2022/07/11 09:04:19;;;;;;;2.47;0.10;;;17.90;99.90;;;;;;5060751;28;20475;-25
2022/07/11 09:06:45;;;;;;;0.45;0.00;;;17.70;1.00;;;;;;5057782;28;20086;-24
2022/07/11 09:09:10;;;;;;;0.15;0.00;;;17.70;1.00;;;;;;5039605;28;20127;-25
2022/07/11 09:11:53;;;;;;;0.77;0.10;;;17.80;1.00;;;;;;5057105;28;20463;-24
2022/07/11 09:14:22;;;;;;;1.75;0.20;;;18.50;1.00;;;;;;5056914;28;20474;-25
2022/07/11 09:16:56;;;;;;;0.10;0.00;;;18.80;99.90;;;;;;5056907;28;20468;-25
2022/07/11 09:19:23;;;;;;;0.35;0.10;;;19.80;99.90;;;;;;5039624;28;20471;-25
2022/07/11 09:25:30;;;;;;;0.32;0.03;;;19.50;99.90;;;;;;5056362;28;20052;-25
2022/07/11 09:28:01;;;;;;;1.35;0.00;;;19.40;91.20;;;;;;5056535;28;20080;-25
2022/07/11 09:30:31;;;;;;;1.60;0.10;;;20.00;1.00;;;;;;5056306;28;20132;-25
2022/07/11 09:33:09;;;;;;;0.82;0.10;;;20.10;1.00;;;;;;5056801;28;20384;-25
2022/07/11 09:35:37;;;;;;;0.60;0.00;;;20.20;1.50;;;;;;5056787;28;20052;-25
2022/07/11 09:38:12;;;;;;;8.48;0.45;;;20.00;53.50;;;;;;5058372;28;20048;-25
2022/07/11 09:40:42;;;;;;;0.30;0.00;;;20.00;1.00;;;;;;5056403;28;20495;-25
2022/07/11 09:43:08;;;;;;;0.00;0.00;;;19.90;1.00;;;;;;5056629;28;20049;-25
2022/07/11 09:45:35;;;;;;;0.05;0.05;;;19.60;99.90;;;;;;5055566;28;20048;-25
2022/07/11 09:48:09;;;;;;;0.70;0.00;;;19.10;99.90;;;;;;5056412;28;20053;-25
2022/07/11 09:50:35;;;;;;;1.98;0.08;;;19.00;1.00;;;;;;5057006;28;20045;-25
2022/07/11 09:53:27;;;;;;;1.75;0.85;;;18.80;1.00;;;;;;5064769;28;20047;-25
2022/07/11 09:55:52;;;;;;;0.85;0.10;;;18.90;99.90;;;;;;5055184;28;20131;-25
2022/07/11 09:58:28;;;;;;;0.63;0.10;;;18.80;99.90;;;;;;5056968;28;20138;-25
2022/07/11 10:00:54;;;;;;;0.45;0.10;;;18.90;1.00;;;;;;5056857;28;20048;-25
2022/07/11 10:03:25;;;;;;;5.38;0.20;;;18.90;99.90;;;;;;5055897;28;20052;-25
2022/07/11 10:05:50;;;;;;;0.55;0.00;;;19.00;99.90;;;;;;5056225;28;20060;-25
2022/07/11 10:08:17;;;;;;;0.17;0.00;;;18.90;1.00;;;;;;5056502;28;20049;-25
2022/07/11 10:10:43;;;;;;;1.48;0.10;;;18.90;1.00;;;;;;5055729;28;20502;-25
2022/07/11 10:13:09;;;;;;;2.72;0.68;;;18.90;93.80;;;;;;5038438;28;20142;-26
2022/07/11 10:15:37;;;;;;;1.85;0.20;;;18.70;93.80;;;;;;5055155;28;20083;-25
2022/07/11 10:18:07;;;;;;;1.20;0.38;;;18.50;1.00;;;;;;5057130;28;20095;-25
2022/07/11 10:20:47;;;;;;;2.10;0.30;;;18.10;29.30;;;;;;5056078;28;20403;-25
2022/07/11 10:23:25;;;;;;;0.40;0.10;;;18.00;1.00;;;;;;5056434;28;20045;-25
2022/07/11 10:26:29;;;;;;;1.25;0.17;;;18.00;99.90;;;;;;5055831;28;20149;-25
2022/07/11 10:29:31;;;;;;;1.80;0.43;;;18.00;99.90;;;;;;5056026;28;20049;-25
2022/07/11 10:32:09;;;;;;;0.60;0.20;;;18.20;1.00;;;;;;5048665;28;20057;-26
2022/07/11 10:34:35;;;;;;;1.75;0.10;;;18.70;99.90;;;;;;5055513;28;20122;-25
2022/07/11 10:37:04;;;;;;;0.52;0.05;;;18.80;99.90;;;;;;5054653;28;20466;-26
2022/07/11 10:39:34;;;;;;;3.22;0.98;;;19.10;99.90;;;;;;5055525;28;20081;-25
2022/07/11 10:42:03;;;;;;;0.85;0.10;;;19.40;99.90;;;;;;5054912;28;20475;-26
2022/07/11 10:44:53;;;;;;;2.45;0.30;;;19.40;1.00;;;;;;5054444;28;20098;-26
2022/07/11 10:47:44;;;;;;;0.70;0.00;;;19.30;99.90;;;;;;5054409;28;20084;-26
2022/07/11 10:50:25;;;;;;;1.05;0.15;;;19.40;99.90;;;;;;5059864;28;20041;-26
2022/07/11 10:52:55;;;;;;;0.77;0.20;;;19.30;1.00;;;;;;5075259;28;20099;-26
2022/07/11 10:55:33;;;;;;;0.10;0.00;;;19.30;99.90;;;;;;5064293;28;20049;-26
2022/07/11 10:58:19;;;;;;;0.15;0.00;;;19.50;99.90;;;;;;5055927;28;20482;-26
2022/07/11 11:00:45;;;;;;;0.73;0.20;;;19.30;99.90;;;;;;5054485;28;20514;-25
2022/07/11 11:03:11;;;;;;;0.13;0.08;;;19.10;99.90;;;;;;5055113;28;20045;-26
2022/07/11 11:05:54;;;;;;;1.85;0.10;;;19.30;1.00;;;;;;5054617;28;20071;-26
2022/07/11 11:08:32;;;;;;;0.43;0.05;;;19.30;99.90;;;;;;5056063;28;20067;-25
2022/07/11 11:10:59;;;;;;;2.78;0.20;;;19.30;1.00;;;;;;5054954;28;20052;-26
2022/07/11 11:13:25;;;;;;;0.65;0.20;;;19.50;1.00;;;;;;5054903;28;20044;-26
2022/07/11 11:15:53;;;;;;;0.73;0.20;;;19.50;99.90;;;;;;5054781;28;20542;-26
2022/07/11 11:18:25;;;;;;;0.65;0.22;;;19.40;1.00;;;;;;5054341;28;20082;-26
2022/07/11 11:21:02;;;;;;;0.77;0.10;;;19.40;99.90;;;;;;5053724;28;20052;-26
2022/07/11 11:23:37;;;;;;;1.10;0.20;;;19.10;99.90;;;;;;5054972;28;20425;-26
2022/07/11 11:26:05;;;;;;;1.38;0.20;;;19.20;1.00;;;;;;5037123;28;20051;-26
2022/07/11 11:28:31;;;;;;;1.13;0.20;;;19.30;1.00;;;;;;5054563;28;20045;-25
2022/07/11 11:31:01;;;;;;;0.17;0.10;;;19.20;1.00;;;;;;5056267;28;20076;-26
2022/07/11 11:33:32;;;;;;;0.57;0.10;;;19.20;99.90;;;;;;5054512;28;20048;-26
2022/07/11 11:36:03;;;;;;;0.85;0.10;;;19.00;99.90;;;;;;5054732;28;20053;-26
2022/07/11 11:38:34;;;;;;;2.05;0.20;;;18.90;99.90;;;;;;5054484;28;20048;-26
2022/07/11 11:41:00;;;;;;;2.47;0.10;;;18.90;1.00;;;;;;5054503;28;20060;-26
2022/07/11 11:43:26;;;;;;;1.42;0.10;;;18.80;99.90;;;;;;5054481;28;20041;-26
2022/07/11 11:45:53;;;;;;;0.10;0.10;;;19.00;1.00;;;;;;5066603;28;20045;-26
2022/07/11 11:48:37;;;;;;;0.77;0.05;;;19.10;99.90;;;;;;5073234;28;20517;-26
2022/07/11 11:51:19;;;;;;;0.38;0.05;;;19.30;99.90;;;;;;5054026;28;20048;-26
2022/07/11 11:53:56;;;;;;;1.48;0.20;;;19.50;1.00;;;;;;5053527;28;20055;-27
2022/07/11 11:56:31;;;;;;;2.40;0.47;;;19.60;99.90;;;;;;5053447;28;20053;-27
2022/07/11 11:59:04;;;;;;;0.52;0.10;;;19.60;99.90;;;;;;5052678;28;20505;-26
2022/07/11 12:01:31;;;;;;;2.72;0.10;;;19.50;81.10;;;;;;5052239;28;20120;-26
2022/07/11 12:04:11;;;;;;;1.85;0.50;;;19.30;99.90;;;;;;5054251;28;20087;-26
2022/07/11 12:06:46;;;;;;;2.35;0.25;;;19.20;98.20;;;;;;5054259;28;20041;-26
2022/07/11 12:09:22;;;;;;;1.45;0.63;;;19.30;99.90;;;;;;5054792;28;20368;-26
2022/07/11 12:12:52;;;;;;;0.85;0.13;;;19.10;1.00;;;;;;5064416;28;20053;-26
2022/07/11 12:14:44;;;;;;;0.45;0.10;;;19.10;99.90;;;;;;5066499;28;20072;-26
2022/07/11 12:17:10;;;;;;;0.40;0.10;;;19.20;99.90;;;;;;5059909;28;20126;-26
2022/07/11 12:19:36;;;;;;;1.27;0.20;;;19.50;99.90;;;;;;5074235;28;20052;-26
2022/07/11 12:22:04;;;;;;;1.55;0.00;;;19.50;12.60;;;;;;5063364;28;20068;-26
2022/07/11 12:24:31;;;;;;;1.73;0.20;;;19.70;99.90;;;;;;5055248;28;20084;-26
2022/07/11 12:26:57;;;;;;;0.82;0.10;;;19.70;99.90;;;;;;5053672;28;20498;-26
2022/07/11 12:29:25;;;;;;;1.08;0.10;;;19.80;99.90;;;;;;5053630;28;20044;-26
2022/07/11 12:31:56;;;;;;;2.80;0.15;;;19.90;99.90;;;;;;5053580;28;20041;-27
2022/07/11 12:34:41;;;;;;;0.70;0.00;;;19.90;1.00;;;;;;5063249;28;20564;-26
2022/07/11 12:37:14;;;;;;;0.82;0.10;;;19.90;99.90;;;;;;5053704;28;20049;-26
2022/07/11 12:39:54;;;;;;;1.42;0.20;;;19.80;1.00;;;;;;5067264;28;20045;-26
2022/07/11 12:42:32;;;;;;;2.63;0.20;;;19.40;1.00;;;;;;5052894;28;20132;-26
2022/07/11 12:45:07;;;;;;;0.73;0.20;;;19.20;17.50;;;;;;5053383;28;20053;-26
2022/07/11 12:47:45;;;;;;;0.55;0.20;;;19.20;92.20;;;;;;5052375;28;20489;-27
2022/07/11 12:50:27;;;;;;;0.25;0.17;;;19.50;99.90;;;;;;5071246;28;20048;-26
2022/07/11 12:52:56;;;;;;;0.93;0.30;;;19.80;99.90;;;;;;5073494;28;20048;-27
2022/07/11 12:55:29;;;;;;;1.20;0.20;;;19.90;1.00;;;;;;5072472;28;20166;-26
2022/07/11 12:58:16;;;;;;;15.30;0.65;;;20.00;99.90;;;;;;5073132;28;20478;-26
2022/07/11 13:00:59;;;;;;;1.17;0.30;;;20.00;99.90;;;;;;5052925;28;20074;-26
2022/07/11 13:03:35;;;;;;;4.25;0.20;;;20.00;99.90;;;;;;5052204;28;20406;-26
2022/07/11 13:06:02;;;;;;;3.15;0.40;;;20.00;99.90;;;;;;5054507;28;20491;-26